OE9FWV Weather Reports


time (UTC)temp
C
wind
direction
speed
KPH
gust
KPH
rain 1hr
cm
rain 24hr
cm
rain mn
cm
humidity
%
barometer
mb
20190425014511 15 189 4.8 9.7 0.00 0.00 0.00 47 1008.0
20190425013507 15 150 0.0 3.2 0.00 0.00 0.00 49 1008.1
20190425012502 15 264 6.4 6.4 0.00 0.00 0.00 47 1008.1
20190425011458 16 335 0.0 3.2 0.00 0.00 0.00 47 1008.0
20190425010455 16 118 4.8 16.1 0.00 0.00 0.00 44 1007.8
20190425005449 16 145 9.7 19.3 0.00 0.00 0.00 43 1007.7
20190425004442 16 145 16.1 22.5 0.00 0.00 0.00 43 1007.5
20190425003442 16 141 16.1 16.1 0.00 0.00 0.00 45 1007.6
20190425002439 16 161 11.3 14.5 0.00 0.00 0.00 46 1007.7
20190425001437 16 194 9.7 16.1 0.00 0.00 0.00 46 1007.6
20190425000432 13 147 12.9 20.9 0.00 0.00 0.00 54 1007.7
20190424235430 11 143 4.8 4.8 0.00 0.00 0.00 67 1007.8
20190424234431 11 149 0.0 3.2 0.00 0.00 0.00 68 1007.9
20190424233426 11 156 3.2 4.8 0.00 0.00 0.00 69 1007.8
20190424232421 11 151 0.0 1.6 0.00 0.00 0.00 69 1007.9
20190424231419 11 152 3.2 6.4 0.00 0.00 0.00 70 1007.8
20190424230418 10 45 3.2 6.4 0.00 0.00 0.00 70 1007.9
20190424225418 11 25 0.0 0.0 0.00 0.00 0.00 69 1008.0
20190424223403 11 21 0.0 0.0 0.00 0.00 0.00 69 1008.2
20190424222359 11 21 0.0 3.2 0.00 0.00 0.00 68 1008.1
20190424221357 11 29 3.2 4.8 0.00 0.00 0.00 68 1008.1
20190424220348 11 48 0.0 6.4 0.00 0.00 0.00 68 1008.1
20190424215345 11 35 0.0 4.8 0.00 0.00 0.00 68 1008.0
20190424214340 11 298 0.0 1.6 0.00 0.00 0.00 67 1008.1
20190424213336 11 293 0.0 12.9 0.00 0.00 0.00 66 1008.0
20190424212334 12 323 0.0 4.8 0.00 0.00 0.00 65 1007.9
20190424211333 13 327 8.0 8.0 0.00 0.00 0.00 62 1007.7
20190424210331 13 352 4.8 4.8 0.00 0.00 0.00 60 1007.5
20190424205327 15 72 0.0 11.3 0.00 0.00 0.00 57 1007.7
20190424204327 15 57 14.5 24.1 0.00 0.00 0.00 54 1007.5
20190424203324 15 195 22.5 29.0 0.00 0.00 0.00 55 1007.4
20190424202319 15 216 20.9 24.1 0.00 0.00 0.00 56 1007.4
20190424201315 15 107 1.6 8.0 0.00 0.00 0.00 57 1007.4
20190424200312 15 231 6.4 8.0 0.00 0.00 0.00 56 1007.0
20190424195311 15 228 8.0 16.1 0.00 0.00 0.00 56 1007.1
20190424194305 15 235 11.3 12.9 0.00 0.00 0.00 55 1007.0
20190424193258 15 210 16.1 19.3 0.00 0.00 0.00 56 1006.8
20190424192258 15 222 25.7 25.7 0.00 0.00 0.00 56 1006.1
20190424191257 15 213 24.1 29.0 0.00 0.00 0.00 56 1006.2
20190424190257 15 251 19.3 20.9 0.00 0.00 0.00 57 1005.9
20190424185252 15 158 0.0 1.6 0.00 0.00 0.00 57 1005.9
20190424184248 15 106 0.0 4.8 0.00 0.00 0.00 57 1005.7
20190424183243 15 185 11.3 20.9 0.00 0.00 0.00 57 1005.2
20190424182238 15 256 19.3 27.4 0.00 0.00 0.00 57 1005.2
20190424181238 15 230 24.1 27.4 0.00 0.00 0.00 58 1005.1
20190424180243 15 220 20.9 29.0 0.00 0.00 0.00 59 1004.8
20190424175228 15 217 33.8 33.8 0.00 0.00 0.00 59 1004.9
20190424174226 15 220 27.4 32.2 0.00 0.00 0.00 59 1004.9
20190424173217 15 217 27.4 27.4 0.00 0.00 0.00 58 1004.7
20190424172217 15 241 29.0 33.8 0.00 0.00 0.00 59 1004.7
20190424171217 15 247 20.9 40.2 0.00 0.00 0.00 58 1004.3
20190424170212 16 197 30.6 30.6 0.00 0.00 0.00 57 1004.4
20190424165208 16 239 33.8 33.8 0.00 0.00 0.00 53 1004.4
20190424164206 17 220 25.7 35.4 0.00 0.00 0.00 53 1004.0
20190424163205 17 237 41.8 41.8 0.00 0.00 0.00 52 1003.8
20190424160152 19 209 45.1 45.1 0.00 0.00 0.00 43 1002.8
20190424155150 20 203 38.6 45.1 0.00 0.00 0.00 42 1002.3
20190424154149 20 204 37.0 41.8 0.00 0.00 0.00 41 1002.2
20190424153143 21 259 29.0 51.5 0.00 0.00 0.00 38 1001.7
20190424152143 21 229 35.4 37.0 0.00 0.00 0.00 36 1001.8
20190424151142 21 202 33.8 38.6 0.00 0.00 0.00 36 1001.7
20190424150138 21 213 37.0 43.5 0.00 0.00 0.00 35 1001.5
20190424145131 22 212 29.0 32.2 0.00 0.00 0.00 34 1001.1
20190424143124 22 248 27.4 38.6 0.00 0.00 0.00 34 1001.1
20190424142124 23 197 20.9 25.7 0.00 0.00 0.00 33 1001.0
20190424141125 23 216 38.6 38.6 0.00 0.00 0.00 32 1001.0
20190424135110 22 212 33.8 33.8 0.00 0.00 0.00 33 1001.0
20190424134109 23 218 32.2 32.2 0.00 0.00 0.00 33 1001.4
20190424133105 23 157 16.1 25.7 0.00 0.00 0.00 32 1000.9
20190424132059 23 189 20.9 33.8 0.00 0.00 0.00 33 1000.9
20190424131055 23 185 25.7 25.7 0.00 0.00 0.00 33 1001.2
20190424130051 23 158 20.9 30.6 0.00 0.00 0.00 33 1001.3
20190424125051 23 245 19.3 35.4 0.00 0.00 0.00 33 1001.5
20190424124042 23 202 30.6 33.8 0.00 0.00 0.00 33 1001.3
20190424123039 23 235 24.1 24.1 0.00 0.00 0.00 32 1001.3
20190424122039 23 158 14.5 25.7 0.00 0.00 0.00 33 1001.4
20190424121023 23 185 22.5 37.0 0.00 0.00 0.00 33 1001.6
20190424120018 23 175 27.4 29.0 0.00 0.00 0.00 33 1001.7
20190424115018 22 219 32.2 32.2 0.00 0.00 0.00 33 1001.5
20190424114015 22 239 27.4 32.2 0.00 0.00 0.00 33 1001.7
20190424113008 22 167 33.8 33.8 0.00 0.00 0.00 34 1002.3
20190424111957 21 191 12.9 25.7 0.00 0.00 0.00 35 1002.3
20190424110954 21 169 9.7 25.7 0.00 0.00 0.00 35 1002.5
20190424110304 21 194 30.6 30.6 0.00 0.00 0.00 34 1002.6
20190424105954 21 194 30.6 30.6 0.00 0.00 0.00 34 1002.6
20190424104952 21 175 30.6 30.6 0.00 0.00 0.00 33 1002.8
20190424103942 21 240 20.9 24.1 0.00 0.00 0.00 34 1002.5
20190424102938 21 199 40.2 40.2 0.00 0.00 0.00 34 1002.6
20190424101936 21 258 27.4 27.4 0.00 0.00 0.00 36 1002.5
20190424100932 21 216 27.4 37.0 0.00 0.00 0.00 36 1002.8
20190424095927 21 230 30.6 35.4 0.00 0.00 0.00 36 1002.3
20190424094924 21 204 20.9 29.0 0.00 0.00 0.00 36 1002.2
20190424093921 21 196 27.4 33.8 0.00 0.00 0.00 36 1002.3
20190424092910 21 208 17.7 30.6 0.00 0.00 0.00 37 1002.1
20190424091910 21 189 25.7 25.7 0.00 0.00 0.00 36 1002.2
20190424090907 21 166 24.1 27.4 0.00 0.00 0.00 37 1002.3
20190424085906 21 203 17.7 20.9 0.00 0.00 0.00 37 1002.0
20190424084902 21 168 20.9 20.9 0.00 0.00 0.00 37 1002.0
20190424083857 22 217 11.3 14.5 0.00 0.00 0.00 36 1002.1
20190424081851 21 171 8.0 8.0 0.00 0.00 0.00 38 1002.0
20190424080850 21 185 8.0 8.0 0.00 0.00 0.00 41 1002.1
20190424075846 20 153 6.4 6.4 0.00 0.00 0.00 42 1002.0
20190424074841 20 143 8.0 12.9 0.00 0.00 0.00 43 1002.1
20190424073836 19 211 12.9 12.9 0.00 0.00 0.00 44 1002.1
20190424072836 18 160 14.5 14.5 0.00 0.00 0.00 46 1002.1
20190424071831 18 175 9.7 9.7 0.00 0.00 0.00 47 1002.0
20190424070829 18 155 11.3 12.9 0.00 0.00 0.00 48 1001.9
20190424065823 17 167 11.3 11.3 0.00 0.00 0.00 48 1001.9
20190424064823 17 192 16.1 16.1 0.00 0.00 0.00 49 1001.9
20190424063817 17 198 12.9 12.9 0.00 0.00 0.00 50 1001.8
20190424062812 17 175 9.7 11.3 0.00 0.00 0.00 50 1001.7
20190424061807 17 190 12.9 12.9 0.00 0.00 0.00 50 1001.7
20190424060858 17 175 19.3 19.3 0.00 0.00 0.00 50 1001.7
20190424055803 16 167 9.7 17.7 0.00 0.00 0.00 51 1001.5
20190424054803 16 150 14.5 14.5 0.00 0.00 0.00 51 1001.5
20190424053801 16 157 16.1 16.1 0.00 0.00 0.00 52 1001.7
20190424052750 16 180 12.9 16.1 0.00 0.00 0.00 52 1001.6
20190424051751 16 165 8.0 14.5 0.00 0.00 0.00 52 1001.5
20190424050749 16 175 11.3 12.9 0.00 0.00 0.00 52 1001.4
20190424045740 16 162 14.5 14.5 0.00 0.00 0.00 52 1001.3
20190424044740 16 185 14.5 14.5 0.00 0.00 0.00 52 1001.5
20190424043731 16 175 16.1 16.1 0.00 0.00 0.00 50 1001.3
20190424042727 16 190 9.7 16.1 0.00 0.00 0.00 50 1001.2
20190424041721 16 201 11.3 17.7 0.00 0.00 0.00 49 1001.1
20190424040717 16 175 19.3 20.9 0.00 0.00 0.00 49 1001.0
20190424035712 17 199 11.3 17.7 0.00 0.00 0.00 49 1000.8
20190424034706 17 150 17.7 19.3 0.00 0.00 0.00 48 1000.8
20190424033702 16 154 12.9 14.5 0.00 0.00 0.00 49 1000.7
20190424032701 16 193 16.1 19.3 0.00 0.00 0.00 49 1000.6
20190424031651 16 175 11.3 16.1 0.00 0.00 0.00 48 1000.5
20190424030649 16 165 12.9 17.7 0.00 0.00 0.00 48 1000.6
20190424025649 17 158 14.5 20.9 0.00 0.00 0.00 48 1000.4
20190424024649 16 159 22.5 22.5 0.00 0.00 0.00 48 1000.2
20190424023644 16 153 12.9 19.3 0.00 0.00 0.00 48 1000.2
20190424022640 16 185 17.7 17.7 0.00 0.00 0.00 49 1000.3
20190424021639 16 158 16.1 19.3 0.00 0.00 0.00 49 1000.2
20190424020636 16 193 16.1 17.7 0.00 0.00 0.00 49 1000.1
20190424015630 16 158 11.3 17.7 0.00 0.00 0.00 49 1000.1